createdAt,value
2018-10-16T00:00:57.714Z,88.40
2018-10-16T00:02:59.995Z,88.30
2018-10-16T00:05:02.249Z,88.40
2018-10-16T00:07:04.639Z,88.40
2018-10-16T00:09:08.097Z,88.40
2018-10-16T00:11:10.383Z,88.30
2018-10-16T00:13:12.597Z,88.40
2018-10-16T00:15:14.887Z,88.40
2018-10-16T00:17:17.179Z,88.50
2018-10-16T00:19:19.382Z,88.40
2018-10-16T00:21:21.618Z,88.40
2018-10-16T00:23:23.932Z,88.70
2018-10-16T00:25:26.164Z,88.40
2018-10-16T00:27:28.428Z,88.40
2018-10-16T00:29:30.799Z,88.60
2018-10-16T00:31:33.023Z,88.60
2018-10-16T00:33:35.250Z,88.50
2018-10-16T00:35:37.969Z,88.60
2018-10-16T00:37:40.193Z,88.50
2018-10-16T00:39:42.434Z,88.60
2018-10-16T00:41:49.472Z,88.50
2018-10-16T00:43:51.726Z,88.30
2018-10-16T00:45:54.011Z,88.50
2018-10-16T00:47:56.275Z,88.40
2018-10-16T00:49:58.491Z,88.50
2018-10-16T00:52:00.878Z,88.20
2018-10-16T00:54:03.100Z,88.40
2018-10-16T00:56:05.347Z,88.10
2018-10-16T00:58:07.530Z,88.30
2018-10-16T01:00:10.838Z,88.10
2018-10-16T01:02:13.051Z,88.20
2018-10-16T01:04:15.370Z,88.30
2018-10-16T01:06:17.650Z,88.30
2018-10-16T01:08:19.887Z,88.30
2018-10-16T01:10:22.354Z,88.20
2018-10-16T01:12:24.635Z,88.40
2018-10-16T01:14:26.899Z,88.40
2018-10-16T01:16:29.178Z,88.50
2018-10-16T01:18:31.477Z,88.50
2018-10-16T01:20:33.752Z,88.50
2018-10-16T01:22:36.279Z,88.60
2018-10-16T01:24:38.488Z,88.50
2018-10-16T01:26:40.728Z,88.60
2018-10-16T01:28:42.955Z,88.60
2018-10-16T01:30:45.151Z,88.60
2018-10-16T01:32:47.330Z,88.70
2018-10-16T01:34:49.536Z,88.70
2018-10-16T01:36:51.738Z,88.80
2018-10-16T01:38:54.000Z,88.60
2018-10-16T01:40:56.248Z,88.50
2018-10-16T01:42:58.500Z,88.40
2018-10-16T01:45:00.753Z,88.50
2018-10-16T01:47:02.923Z,88.60
2018-10-16T01:49:05.332Z,88.50
2018-10-16T01:51:07.941Z,88.60
2018-10-16T01:53:10.178Z,88.70
2018-10-16T01:55:12.433Z,88.60
2018-10-16T01:57:14.701Z,88.60
2018-10-16T01:59:16.942Z,88.60
2018-10-16T02:01:19.139Z,88.60
2018-10-16T02:03:22.127Z,88.70
2018-10-16T02:05:24.692Z,88.90
2018-10-16T02:07:26.911Z,89.00
2018-10-16T02:09:29.182Z,89.10
2018-10-16T02:11:31.375Z,89.10
2018-10-16T02:13:33.604Z,89.10
2018-10-16T02:15:36.259Z,89.10
2018-10-16T02:17:39.439Z,89.20
2018-10-16T02:19:41.709Z,89.30
2018-10-16T02:21:43.999Z,89.30
2018-10-16T02:23:46.206Z,89.30
2018-10-16T02:25:48.443Z,89.50
2018-10-16T02:27:50.724Z,89.50
2018-10-16T02:29:52.953Z,89.70
2018-10-16T02:34:04.662Z,89.50
2018-10-16T02:36:06.918Z,89.50
2018-10-16T02:38:09.165Z,89.40
2018-10-16T02:40:11.424Z,89.50
2018-10-16T02:46:36.711Z,89.80
2018-10-16T02:48:39.548Z,89.90
2018-10-16T02:50:41.932Z,89.70
2018-10-16T02:52:44.174Z,89.90
2018-10-16T02:54:46.397Z,89.70
2018-10-16T02:56:48.675Z,89.70
2018-10-16T02:58:50.914Z,90.00
2018-10-16T03:00:53.430Z,90.30
2018-10-16T03:02:55.628Z,90.90
2018-10-16T03:04:57.878Z,90.70
2018-10-16T03:07:00.151Z,90.30
2018-10-16T03:09:02.448Z,90.40
2018-10-16T03:11:05.086Z,90.80
2018-10-16T03:13:07.510Z,90.70
2018-10-16T03:15:11.546Z,90.30
2018-10-16T03:17:13.803Z,90.40
2018-10-16T03:32:10.216Z,90.90
2018-10-16T03:34:12.488Z,90.80
2018-10-16T03:36:14.679Z,91.00
2018-10-16T03:38:16.852Z,90.80
2018-10-16T03:40:19.098Z,90.80
2018-10-16T03:42:21.417Z,91.10
2018-10-16T03:44:23.656Z,91.10
2018-10-16T03:46:26.123Z,91.30
2018-10-16T03:48:28.346Z,91.30
2018-10-16T03:50:30.562Z,91.00
2018-10-16T03:52:33.131Z,90.40
2018-10-16T03:54:35.407Z,90.80
2018-10-16T03:56:37.695Z,90.60
2018-10-16T03:58:39.933Z,90.50
2018-10-16T04:00:42.419Z,90.20
2018-10-16T04:02:44.783Z,91.00
2018-10-16T04:04:46.972Z,90.80
2018-10-16T04:06:49.200Z,91.00
2018-10-16T04:08:52.389Z,91.20
2018-10-16T04:10:54.752Z,91.60
2018-10-16T04:12:56.996Z,91.20
2018-10-16T04:14:59.337Z,91.00
2018-10-16T04:17:01.794Z,91.40
2018-10-16T04:19:04.796Z,91.40
2018-10-16T04:21:07.859Z,91.40
2018-10-16T04:23:10.293Z,91.00
2018-10-16T04:25:12.525Z,91.50
2018-10-16T04:27:14.911Z,91.50
2018-10-16T04:29:17.236Z,91.80
2018-10-16T04:31:19.343Z,91.30
2018-10-16T04:33:21.656Z,91.60
2018-10-16T04:35:24.041Z,91.40
2018-10-16T04:37:26.376Z,92.10
2018-10-16T04:39:28.672Z,91.30
2018-10-16T04:41:32.048Z,90.40
2018-10-16T04:43:34.253Z,90.70
2018-10-16T04:45:37.188Z,91.40
2018-10-16T04:47:39.949Z,91.50
2018-10-16T04:49:42.200Z,92.10
2018-10-16T04:51:44.430Z,92.40
2018-10-16T04:53:47.304Z,92.20
2018-10-16T04:55:51.373Z,92.60
2018-10-16T04:57:54.492Z,92.40
2018-10-16T04:59:56.864Z,92.80
2018-10-16T05:01:59.183Z,92.90
2018-10-16T05:04:01.515Z,93.30
2018-10-16T05:06:03.845Z,92.70
2018-10-16T05:08:08.246Z,92.40
2018-10-16T05:10:14.449Z,92.80
2018-10-16T05:12:19.545Z,92.50
2018-10-16T05:14:22.204Z,92.00
2018-10-16T05:16:24.667Z,91.90
2018-10-16T05:18:26.768Z,91.90
2018-10-16T05:38:41.567Z,92.30
2018-10-16T05:40:43.712Z,91.90
2018-10-16T05:42:45.838Z,91.50
2018-10-16T05:44:47.973Z,91.40
2018-10-16T05:46:50.119Z,91.50
2018-10-16T05:48:52.278Z,91.50
2018-10-16T05:50:54.410Z,91.30
2018-10-16T05:52:56.527Z,91.30
2018-10-16T05:54:58.698Z,91.40
2018-10-16T05:57:00.814Z,92.00
2018-10-16T05:59:03.004Z,91.90
2018-10-16T06:01:05.259Z,91.80
2018-10-16T06:03:07.547Z,91.70
2018-10-16T06:05:10.205Z,91.60
2018-10-16T06:07:12.346Z,91.70
2018-10-16T06:09:14.523Z,92.10
2018-10-16T06:11:16.930Z,91.80
2018-10-16T06:13:19.046Z,91.70
2018-10-16T06:15:21.177Z,92.20
2018-10-16T06:17:23.330Z,91.70
2018-10-16T06:19:25.472Z,91.40
2018-10-16T06:21:27.617Z,91.60
2018-10-16T06:23:29.779Z,91.30
2018-10-16T06:25:31.926Z,91.30
2018-10-16T06:27:34.062Z,91.20
2018-10-16T06:29:36.199Z,91.20
2018-10-16T06:31:38.364Z,90.90
2018-10-16T06:33:40.750Z,90.90
2018-10-16T06:35:42.890Z,90.90
2018-10-16T06:37:45.015Z,90.20
2018-10-16T06:39:47.146Z,89.50
2018-10-16T06:41:49.519Z,89.10
2018-10-16T06:43:52.056Z,89.70
2018-10-16T06:45:54.269Z,89.30
2018-10-16T06:47:56.411Z,89.60
2018-10-16T06:49:58.550Z,90.00
2018-10-16T06:52:00.840Z,90.30
2018-10-16T06:54:03.014Z,90.30
2018-10-16T06:56:05.546Z,90.50
2018-10-16T06:58:07.690Z,90.30
2018-10-16T07:00:09.846Z,91.00
2018-10-16T07:02:11.968Z,91.00
2018-10-16T07:04:14.331Z,91.10
2018-10-16T07:06:16.453Z,91.00
2018-10-16T07:08:18.594Z,90.50
2018-10-16T07:10:20.942Z,91.30
2018-10-16T07:12:23.090Z,90.70
2018-10-16T07:14:25.303Z,90.40
2018-10-16T07:16:27.975Z,91.30
2018-10-16T07:18:30.101Z,91.50
2018-10-16T07:20:32.225Z,92.00
2018-10-16T07:22:34.528Z,91.50
2018-10-16T07:24:36.651Z,91.10
2018-10-16T07:26:38.778Z,90.90
2018-10-16T07:28:40.954Z,91.80
2018-10-16T07:30:43.095Z,92.20
2018-10-16T07:32:45.248Z,91.60
2018-10-16T07:34:47.429Z,90.90
2018-10-16T07:36:49.843Z,91.50
2018-10-16T07:38:52.078Z,92.10
2018-10-16T07:40:54.098Z,91.70
2018-10-16T07:42:56.223Z,91.40
2018-10-16T07:44:58.380Z,92.20
2018-10-16T07:47:00.526Z,92.30
2018-10-16T07:49:02.696Z,92.60
2018-10-16T07:51:05.490Z,92.40
2018-10-16T07:53:07.659Z,92.60
2018-10-16T07:55:12.950Z,92.00
2018-10-16T07:57:15.170Z,90.80
2018-10-16T07:59:17.346Z,91.30
2018-10-16T08:01:19.714Z,91.30
2018-10-16T08:03:21.878Z,91.00
2018-10-16T08:05:24.008Z,91.30
2018-10-16T08:07:26.367Z,91.80
2018-10-16T08:09:28.513Z,91.30
2018-10-16T08:11:30.745Z,91.30
2018-10-16T08:13:32.850Z,91.80
2018-10-16T08:15:35.135Z,91.50
2018-10-16T08:17:37.362Z,91.10
2018-10-16T08:19:39.634Z,91.10
2018-10-16T08:21:42.190Z,92.10
2018-10-16T08:23:44.319Z,91.80
2018-10-16T08:25:46.618Z,92.10
2018-10-16T08:27:48.742Z,91.10
2018-10-16T08:29:50.866Z,91.10
2018-10-16T08:31:53.245Z,91.10
2018-10-16T08:33:55.475Z,90.50
2018-10-16T08:35:57.625Z,90.60
2018-10-16T08:38:35.877Z,90.20
2018-10-16T08:40:38.047Z,89.60
2018-10-16T08:43:23.379Z,89.20
2018-10-16T08:45:37.063Z,88.30
2018-10-16T08:47:50.718Z,87.90
2018-10-16T08:50:04.362Z,89.30
2018-10-16T08:52:06.482Z,89.60
2018-10-16T08:54:09.014Z,88.80
2018-10-16T08:56:11.263Z,87.90
2018-10-16T08:58:13.367Z,87.40
2018-10-16T09:00:15.538Z,87.20
2018-10-16T09:02:17.675Z,86.70
2018-10-16T09:04:19.847Z,86.40
2018-10-16T09:06:21.982Z,84.70
2018-10-16T09:08:24.255Z,84.10
2018-10-16T09:10:26.855Z,84.10
2018-10-16T09:12:30.122Z,83.20
2018-10-16T09:14:32.367Z,84.40
2018-10-16T09:16:34.434Z,85.90
2018-10-16T09:18:36.834Z,85.50
2018-10-16T09:20:39.043Z,84.90
2018-10-16T09:22:41.210Z,84.50
2018-10-16T09:24:43.394Z,83.70
2018-10-16T09:26:45.600Z,83.90
2018-10-16T09:28:47.773Z,84.50
2018-10-16T09:30:49.979Z,85.30
2018-10-16T09:32:52.459Z,85.90
2018-10-16T09:34:54.669Z,85.70
2018-10-16T09:36:56.850Z,85.60
2018-10-16T09:38:59.030Z,85.40
2018-10-16T09:41:01.200Z,85.30
2018-10-16T09:43:03.570Z,84.90
2018-10-16T09:45:06.384Z,84.20
2018-10-16T09:47:08.771Z,84.10
2018-10-16T09:49:10.930Z,84.20
2018-10-16T09:51:13.043Z,84.10
2018-10-16T09:53:15.217Z,84.00
2018-10-16T09:55:17.392Z,83.80
2018-10-16T09:57:19.581Z,84.40
2018-10-16T09:59:21.795Z,85.20
2018-10-16T10:01:29.698Z,85.50
2018-10-16T10:03:31.875Z,85.20
2018-10-16T10:05:34.382Z,84.80
2018-10-16T10:07:36.543Z,84.90
2018-10-16T10:09:38.688Z,84.60
2018-10-16T10:11:41.008Z,84.70
2018-10-16T10:13:43.166Z,85.10
2018-10-16T10:15:45.330Z,85.30
2018-10-16T10:17:47.726Z,85.30
2018-10-16T10:19:49.876Z,85.40
2018-10-16T10:21:52.106Z,85.20
2018-10-16T10:23:54.324Z,85.70
2018-10-16T10:25:56.484Z,85.60
2018-10-16T10:27:58.823Z,85.60
2018-10-16T10:30:01.481Z,84.80
2018-10-16T10:32:04.465Z,84.90
2018-10-16T10:34:06.606Z,84.60
2018-10-16T10:36:08.840Z,84.50
2018-10-16T10:38:11.892Z,84.30
2018-10-16T10:40:14.046Z,84.90
2018-10-16T10:42:16.252Z,85.30
2018-10-16T10:44:18.371Z,85.20
2018-10-16T10:46:20.516Z,85.40
2018-10-16T10:48:22.700Z,85.30
2018-10-16T10:50:25.153Z,85.10
2018-10-16T10:52:29.044Z,85.60
2018-10-16T10:54:31.222Z,85.30
2018-10-16T10:56:33.484Z,85.70
2018-10-16T10:58:35.558Z,85.80
2018-10-16T11:00:37.836Z,85.70
2018-10-16T11:02:40.722Z,86.00
2018-10-16T11:04:42.838Z,86.00
2018-10-16T11:06:45.009Z,86.20
2018-10-16T11:08:47.371Z,86.20
2018-10-16T11:10:49.558Z,86.20
2018-10-16T11:12:51.708Z,86.00
2018-10-16T11:14:53.932Z,85.80
2018-10-16T11:16:56.078Z,85.90
2018-10-16T11:18:58.203Z,85.80
2018-10-16T11:21:00.635Z,85.60
2018-10-16T11:23:02.755Z,85.60
2018-10-16T11:25:05.835Z,85.10
2018-10-16T11:27:07.999Z,85.40
2018-10-16T11:29:10.176Z,85.20
2018-10-16T11:31:12.414Z,85.40
2018-10-16T11:33:14.602Z,85.20
2018-10-16T11:35:16.792Z,85.10
2018-10-16T11:37:19.193Z,84.90
2018-10-16T11:39:21.365Z,85.20
2018-10-16T11:41:23.513Z,84.70
2018-10-16T11:43:25.686Z,85.10
2018-10-16T11:45:27.794Z,85.10
2018-10-16T11:47:29.929Z,85.00
2018-10-16T11:49:32.105Z,85.10
2018-10-16T11:51:34.538Z,85.30
2018-10-16T11:53:36.807Z,85.40
2018-10-16T11:55:38.976Z,85.40
2018-10-16T11:57:41.162Z,85.30
2018-10-16T11:59:43.470Z,85.70
2018-10-16T12:01:45.607Z,85.30
2018-10-16T12:03:47.833Z,86.00
2018-10-16T12:05:50.318Z,85.90
2018-10-16T12:07:52.393Z,86.00
2018-10-16T12:09:54.536Z,85.90
2018-10-16T12:11:56.718Z,86.40
2018-10-16T12:13:58.887Z,86.80
2018-10-16T12:16:01.187Z,86.60
2018-10-16T12:18:09.353Z,86.40
2018-10-16T12:20:15.386Z,87.30
2018-10-16T12:22:17.509Z,87.40
2018-10-16T12:24:19.865Z,87.60
2018-10-16T12:26:22.031Z,86.70
2018-10-16T12:28:24.202Z,87.40
2018-10-16T12:30:26.337Z,87.70
2018-10-16T12:32:28.503Z,88.00
2018-10-16T12:34:30.640Z,88.60
2018-10-16T12:36:32.875Z,88.50
2018-10-16T12:38:35.421Z,88.50
2018-10-16T12:40:37.539Z,89.10
2018-10-16T12:42:39.750Z,88.10
2018-10-16T12:44:41.863Z,88.50
2018-10-16T12:46:44.199Z,88.40
2018-10-16T12:48:46.362Z,88.60
2018-10-16T12:50:48.498Z,88.30
2018-10-16T12:52:50.681Z,87.70
2018-10-16T12:54:52.771Z,87.50
2018-10-16T12:56:55.373Z,87.10
2018-10-16T12:58:57.403Z,87.50
2018-10-16T13:00:59.526Z,86.90
2018-10-16T13:03:02.038Z,86.00
2018-10-16T13:05:05.263Z,85.80
2018-10-16T13:07:12.974Z,82.70
2018-10-16T13:09:15.347Z,81.20
2018-10-16T13:11:17.531Z,78.50
2018-10-16T13:13:19.588Z,77.90
2018-10-16T13:15:21.752Z,80.40
2018-10-16T13:17:23.984Z,81.30
2018-10-16T13:19:26.076Z,82.70
2018-10-16T13:21:28.193Z,83.90
2018-10-16T13:23:30.382Z,84.70
2018-10-16T13:25:32.530Z,85.10
2018-10-16T13:27:34.763Z,85.10
2018-10-16T13:29:37.215Z,84.80
2018-10-16T13:31:39.616Z,85.40
2018-10-16T13:33:41.730Z,85.00
2018-10-16T13:35:43.893Z,85.10
2018-10-16T13:37:46.673Z,84.10
2018-10-16T13:39:48.895Z,81.80
2018-10-16T13:41:51.038Z,81.00
2018-10-16T13:43:53.533Z,81.10
2018-10-16T13:45:55.772Z,81.70
2018-10-16T13:47:57.837Z,82.10
2018-10-16T13:50:00.528Z,82.70
2018-10-16T13:52:02.725Z,82.60
2018-10-16T13:54:04.986Z,82.50
2018-10-16T13:56:07.840Z,82.80
2018-10-16T13:58:09.991Z,82.60
2018-10-16T14:00:14.495Z,82.30
2018-10-16T14:02:16.886Z,82.60
2018-10-16T14:04:19.026Z,82.90
2018-10-16T14:06:21.155Z,83.50
2018-10-16T14:08:23.526Z,83.80
2018-10-16T14:10:25.702Z,84.30
2018-10-16T14:12:27.858Z,84.40
2018-10-16T14:14:30.094Z,84.60
2018-10-16T14:16:32.259Z,85.10
2018-10-16T14:18:34.358Z,85.60
2018-10-16T14:20:36.567Z,85.90
2018-10-16T14:22:39.925Z,86.10
2018-10-16T14:24:42.071Z,86.20
2018-10-16T14:26:44.219Z,86.30
2018-10-16T14:28:46.348Z,86.50
2018-10-16T14:30:48.657Z,86.50
2018-10-16T14:32:51.062Z,86.30
2018-10-16T14:34:53.202Z,86.60
2018-10-16T14:36:55.686Z,86.70
2018-10-16T14:38:58.198Z,86.50
2018-10-16T14:41:00.310Z,86.80
2018-10-16T14:43:02.578Z,87.10
2018-10-16T14:45:05.872Z,87.40
2018-10-16T14:47:08.028Z,87.10
2018-10-16T14:49:10.185Z,87.10
2018-10-16T14:51:12.702Z,87.40
2018-10-16T14:53:14.835Z,87.20
2018-10-16T14:55:17.018Z,87.20
2018-10-16T14:57:19.617Z,87.40
2018-10-16T14:59:22.121Z,87.50
2018-10-16T15:01:24.255Z,87.60
2018-10-16T15:03:26.394Z,87.50
2018-10-16T15:05:28.562Z,87.80
2018-10-16T15:07:30.690Z,88.20
2018-10-16T15:09:32.840Z,88.30
2018-10-16T15:11:34.982Z,88.70
2018-10-16T15:13:37.247Z,89.00
2018-10-16T15:15:39.415Z,89.00
2018-10-16T15:17:41.622Z,89.50
2018-10-16T15:19:57.010Z,89.50
2018-10-16T15:21:59.673Z,89.50
2018-10-16T15:24:01.821Z,89.70
2018-10-16T15:26:04.530Z,89.80
2018-10-16T15:28:06.715Z,89.80
2018-10-16T15:30:09.275Z,90.20
2018-10-16T15:32:11.456Z,90.20
2018-10-16T15:34:13.578Z,90.30
2018-10-16T15:36:15.759Z,90.50
2018-10-16T15:38:17.846Z,90.90
2018-10-16T15:40:20.004Z,90.40
2018-10-16T15:42:22.694Z,89.50
2018-10-16T15:44:25.172Z,89.70
2018-10-16T15:46:27.274Z,89.70
2018-10-16T15:48:29.409Z,90.10
2018-10-16T15:50:31.532Z,90.20
2018-10-16T15:52:33.631Z,90.40
2018-10-16T15:54:35.758Z,90.50
2018-10-16T15:56:37.880Z,91.10
2018-10-16T15:58:40.006Z,91.90
2018-10-16T16:00:42.313Z,92.30
2018-10-16T16:02:44.471Z,92.50
2018-10-16T16:04:46.869Z,92.40
2018-10-16T16:06:49.002Z,92.20
2018-10-16T16:08:51.144Z,91.80
2018-10-16T16:10:53.286Z,91.60
2018-10-16T16:12:55.760Z,91.10
2018-10-16T16:14:57.872Z,90.90
2018-10-16T16:16:59.991Z,91.10
2018-10-16T16:19:02.622Z,91.50
2018-10-16T16:21:05.154Z,91.60
2018-10-16T16:23:07.263Z,91.60
2018-10-16T16:25:10.883Z,91.50
2018-10-16T16:27:13.006Z,91.60
2018-10-16T16:29:15.138Z,91.70
2018-10-16T16:31:20.290Z,91.80
2018-10-16T16:33:22.578Z,92.20
2018-10-16T16:35:24.702Z,92.00
2018-10-16T16:37:26.836Z,91.90
2018-10-16T16:39:29.062Z,92.10
2018-10-16T16:41:31.091Z,92.10
2018-10-16T16:43:33.275Z,92.70
2018-10-16T16:45:35.391Z,93.50
2018-10-16T16:47:37.760Z,93.50
2018-10-16T16:49:39.894Z,93.80
2018-10-16T16:51:43.661Z,93.40
2018-10-16T16:53:46.068Z,93.70
2018-10-16T16:55:49.588Z,93.20
2018-10-16T16:57:57.634Z,93.30
2018-10-16T16:59:59.787Z,93.20
2018-10-16T17:02:01.998Z,92.60
2018-10-16T17:04:04.426Z,92.60
2018-10-16T17:06:06.820Z,92.90
2018-10-16T17:08:09.027Z,93.10
2018-10-16T17:10:11.178Z,93.20
2018-10-16T17:12:13.427Z,93.40
2018-10-16T17:14:15.700Z,92.90
2018-10-16T17:16:17.891Z,92.90
2018-10-16T17:18:20.218Z,92.80
2018-10-16T17:20:22.448Z,92.60
2018-10-16T17:22:24.551Z,92.20
2018-10-16T17:24:27.083Z,92.10
2018-10-16T17:26:29.469Z,92.10
2018-10-16T17:28:31.691Z,92.00
2018-10-16T17:30:33.874Z,92.00
2018-10-16T17:32:36.215Z,92.50
2018-10-16T17:34:38.353Z,92.90
2018-10-16T17:36:40.782Z,93.00
2018-10-16T17:38:43.622Z,93.70
2018-10-16T17:40:46.577Z,93.70
2018-10-16T17:42:48.751Z,93.70
2018-10-16T17:44:51.010Z,93.70
2018-10-16T17:46:53.299Z,94.30
2018-10-16T17:48:55.472Z,94.20
2018-10-16T17:50:57.759Z,94.50
2018-10-16T17:52:59.928Z,94.60
2018-10-16T17:55:02.235Z,94.70
2018-10-16T17:57:04.957Z,94.60
2018-10-16T17:59:07.088Z,94.50
2018-10-16T18:01:09.315Z,94.30
2018-10-16T18:03:11.578Z,94.40
2018-10-16T18:05:14.199Z,94.30
2018-10-16T18:07:16.400Z,94.00
2018-10-16T18:09:18.981Z,94.10
2018-10-16T18:11:21.374Z,94.20
2018-10-16T18:13:23.559Z,93.90
2018-10-16T18:15:25.796Z,94.00
2018-10-16T18:17:27.998Z,94.20
2018-10-16T18:19:30.233Z,94.70
2018-10-16T18:21:32.491Z,94.70
2018-10-16T18:23:34.838Z,94.80
2018-10-16T18:25:37.011Z,95.10
2018-10-16T18:27:39.853Z,95.20
2018-10-16T18:29:42.083Z,95.30
2018-10-16T18:31:44.254Z,95.20
2018-10-16T18:33:46.449Z,95.20
2018-10-16T18:35:48.640Z,95.10
2018-10-16T18:37:50.937Z,94.50
2018-10-16T18:39:53.145Z,94.80
2018-10-16T18:41:55.368Z,94.70
2018-10-16T18:43:57.556Z,94.90
2018-10-16T18:45:59.856Z,95.10
2018-10-16T18:48:02.077Z,94.80
2018-10-16T18:50:05.519Z,94.70
2018-10-16T18:52:07.735Z,94.90
2018-10-16T18:54:09.994Z,94.80
2018-10-16T18:56:12.167Z,94.50
2018-10-16T18:58:14.481Z,95.00
2018-10-16T19:00:17.791Z,95.20
2018-10-16T19:02:20.067Z,95.40
2018-10-16T19:04:22.243Z,95.60
2018-10-16T19:06:24.444Z,95.60
2018-10-16T19:08:26.782Z,95.30
2018-10-16T19:10:29.028Z,95.90
2018-10-16T19:12:31.218Z,96.00
2018-10-16T19:14:33.848Z,96.20
2018-10-16T19:16:36.259Z,96.50
2018-10-16T19:18:38.439Z,96.60
2018-10-16T19:20:40.701Z,96.50
2018-10-16T19:22:43.842Z,96.50
2018-10-16T19:24:46.434Z,96.20
2018-10-16T19:26:48.669Z,96.00
2018-10-16T19:28:52.456Z,96.00
2018-10-16T19:30:54.635Z,96.80
2018-10-16T19:32:57.208Z,96.70
2018-10-16T19:34:59.517Z,96.90
2018-10-16T19:37:01.868Z,96.40
2018-10-16T19:39:07.541Z,96.50
2018-10-16T19:41:09.946Z,96.50
2018-10-16T19:43:12.378Z,96.90
2018-10-16T19:45:14.782Z,96.40
2018-10-16T19:47:17.054Z,96.60
2018-10-16T19:49:19.397Z,96.70
2018-10-16T19:51:21.957Z,96.90
2018-10-16T19:53:24.187Z,96.80
2018-10-16T19:55:26.388Z,97.10
2018-10-16T19:57:28.708Z,97.30
2018-10-16T19:59:30.936Z,97.30
2018-10-16T20:01:33.479Z,97.80
2018-10-16T20:03:35.798Z,97.70
2018-10-16T20:05:39.250Z,98.20
2018-10-16T20:07:42.765Z,98.30
2018-10-16T20:09:46.712Z,98.30
2018-10-16T20:11:51.113Z,98.30
2018-10-16T20:13:53.547Z,98.10
2018-10-16T20:15:55.783Z,98.20
2018-10-16T20:17:58.012Z,98.00
2018-10-16T20:20:00.211Z,97.80
2018-10-16T20:22:02.419Z,97.70
2018-10-16T20:24:05.011Z,98.30
2018-10-16T20:26:07.900Z,98.30
2018-10-16T20:28:10.095Z,98.30
2018-10-16T20:30:12.331Z,98.30
2018-10-16T20:32:14.966Z,98.30
2018-10-16T20:34:17.145Z,98.30
2018-10-16T20:36:19.503Z,98.30
2018-10-16T20:38:21.675Z,98.30
2018-10-16T20:40:23.940Z,98.30
2018-10-16T20:42:26.131Z,98.30
2018-10-16T20:44:28.571Z,98.30
2018-10-16T20:46:30.902Z,98.30
2018-10-16T20:48:33.083Z,98.30
2018-10-16T20:50:35.344Z,98.30
2018-10-16T20:52:38.136Z,98.30
2018-10-16T20:54:40.496Z,98.30
2018-10-16T20:56:43.290Z,98.30
2018-10-16T20:58:45.601Z,98.30
2018-10-16T21:00:48.695Z,98.30
2018-10-16T21:02:50.993Z,98.30
2018-10-16T21:04:53.541Z,98.30
2018-10-16T21:06:57.018Z,98.30
2018-10-16T21:09:01.274Z,98.30
2018-10-16T21:11:04.131Z,98.30
2018-10-16T21:13:06.411Z,98.30
2018-10-16T21:15:09.532Z,98.30
2018-10-16T21:17:11.991Z,98.30
2018-10-16T21:19:14.279Z,98.30
2018-10-16T21:21:16.675Z,98.30
2018-10-16T21:23:19.292Z,98.30
2018-10-16T21:25:21.550Z,98.30
2018-10-16T21:27:23.759Z,98.30
2018-10-16T21:29:26.072Z,98.30
2018-10-16T21:31:28.685Z,98.30
2018-10-16T21:33:30.882Z,98.30
2018-10-16T21:35:33.233Z,98.30
2018-10-16T21:37:35.498Z,98.30
2018-10-16T21:39:37.730Z,98.30
2018-10-16T21:41:39.923Z,98.30
2018-10-16T21:43:42.340Z,98.30
2018-10-16T21:45:44.685Z,98.30
2018-10-16T21:47:46.850Z,98.30
2018-10-16T21:49:49.016Z,98.30
2018-10-16T21:51:51.534Z,98.30
2018-10-16T21:53:53.695Z,98.30
2018-10-16T21:55:55.851Z,98.30
2018-10-16T21:57:58.023Z,98.30
2018-10-16T22:00:00.466Z,98.30
2018-10-16T22:02:08.498Z,98.30
2018-10-16T22:04:10.666Z,98.30
2018-10-16T22:06:12.850Z,98.30
2018-10-16T22:08:15.100Z,98.30
2018-10-16T22:10:17.267Z,98.30
2018-10-16T22:12:19.461Z,98.30
2018-10-16T22:14:21.614Z,98.30
2018-10-16T22:16:23.776Z,98.30
2018-10-16T22:18:26.149Z,98.30
2018-10-16T22:20:28.338Z,98.30
2018-10-16T22:22:30.508Z,98.30
2018-10-16T22:24:32.694Z,98.30
2018-10-16T22:26:34.867Z,98.30
2018-10-16T22:28:37.052Z,98.30
2018-10-16T22:30:39.450Z,98.30
2018-10-16T22:32:41.664Z,98.30
2018-10-16T22:34:43.827Z,98.30
2018-10-16T22:36:46.223Z,98.30
2018-10-16T22:38:48.387Z,98.30
2018-10-16T22:40:50.573Z,98.30
2018-10-16T22:42:53.027Z,98.30
2018-10-16T22:44:55.199Z,98.30
2018-10-16T22:46:57.400Z,98.30
2018-10-16T22:48:59.687Z,98.30
2018-10-16T22:51:01.935Z,98.30
2018-10-16T22:53:04.333Z,98.30
2018-10-16T22:55:07.474Z,98.30
2018-10-16T22:57:09.686Z,98.30
2018-10-16T22:59:12.029Z,98.30
2018-10-16T23:01:14.269Z,98.30
2018-10-16T23:03:16.318Z,98.30
2018-10-16T23:05:18.514Z,98.30
2018-10-16T23:07:21.075Z,98.30
2018-10-16T23:09:23.359Z,98.30
2018-10-16T23:11:25.623Z,98.30
2018-10-16T23:13:27.808Z,98.30
2018-10-16T23:15:30.026Z,98.30
2018-10-16T23:17:32.252Z,98.30
2018-10-16T23:19:34.531Z,98.30
2018-10-16T23:21:36.758Z,98.30
2018-10-16T23:23:39.039Z,98.30
2018-10-16T23:25:41.229Z,98.30
2018-10-16T23:27:43.399Z,98.30
2018-10-16T23:29:45.607Z,98.30
2018-10-16T23:31:47.866Z,98.30
2018-10-16T23:33:50.032Z,98.30
2018-10-16T23:35:52.204Z,98.30
2018-10-16T23:37:54.700Z,98.30
2018-10-16T23:39:56.874Z,98.30
2018-10-16T23:41:59.073Z,98.30
2018-10-16T23:44:01.236Z,98.30
2018-10-16T23:46:03.802Z,98.30
2018-10-16T23:48:05.967Z,98.30
2018-10-16T23:50:08.216Z,98.30
2018-10-16T23:52:10.396Z,98.30
2018-10-16T23:54:12.711Z,98.30
2018-10-16T23:56:14.934Z,98.30
2018-10-16T23:58:17.170Z,98.30
